sensor_id;sensor_type;location;lat;lon;timestamp;P1;durP1;ratioP1;P2;durP2;ratioP2
77736;SDS011;66903;59.926;30.404;2023-09-19T00:01:35;3.70;;;1.10;;
77736;SDS011;66903;59.926;30.404;2023-09-19T00:06:38;2.40;;;0.82;;
77736;SDS011;66903;59.926;30.404;2023-09-19T00:11:39;3.88;;;1.13;;
77736;SDS011;66903;59.926;30.404;2023-09-19T00:16:41;3.15;;;0.90;;
77736;SDS011;66903;59.926;30.404;2023-09-19T00:21:42;2.95;;;0.90;;
77736;SDS011;66903;59.926;30.404;2023-09-19T00:26:43;2.83;;;1.00;;
77736;SDS011;66903;59.926;30.404;2023-09-19T00:31:43;1.88;;;0.73;;
77736;SDS011;66903;59.926;30.404;2023-09-19T00:36:44;4.00;;;1.23;;
77736;SDS011;66903;59.926;30.404;2023-09-19T00:41:45;2.58;;;0.95;;
77736;SDS011;66903;59.926;30.404;2023-09-19T00:46:45;2.60;;;1.00;;
77736;SDS011;66903;59.926;30.404;2023-09-19T00:51:49;2.42;;;0.93;;
77736;SDS011;66903;59.926;30.404;2023-09-19T00:56:50;2.50;;;0.98;;
77736;SDS011;66903;59.926;30.404;2023-09-19T01:01:51;2.33;;;0.82;;
77736;SDS011;66903;59.926;30.404;2023-09-19T01:06:54;3.00;;;0.98;;
77736;SDS011;66903;59.926;30.404;2023-09-19T01:11:57;3.78;;;0.70;;
77736;SDS011;66903;59.926;30.404;2023-09-19T01:22:42;2.70;;;0.98;;
77736;SDS011;66903;59.926;30.404;2023-09-19T01:27:57;3.83;;;0.73;;
77736;SDS011;66903;59.926;30.404;2023-09-19T01:33:15;1.92;;;0.70;;
77736;SDS011;66903;59.926;30.404;2023-09-19T01:38:19;1.67;;;0.70;;
77736;SDS011;66903;59.926;30.404;2023-09-19T01:43:20;2.90;;;0.90;;
77736;SDS011;66903;59.926;30.404;2023-09-19T01:48:41;2.40;;;0.70;;
77736;SDS011;66903;59.926;30.404;2023-09-19T01:59:11;2.88;;;0.80;;
77736;SDS011;66903;59.926;30.404;2023-09-19T02:04:16;4.25;;;0.80;;
77736;SDS011;66903;59.926;30.404;2023-09-19T02:09:16;2.92;;;0.80;;
77736;SDS011;66903;59.926;30.404;2023-09-19T02:14:17;1.63;;;0.60;;
77736;SDS011;66903;59.926;30.404;2023-09-19T02:19:19;2.08;;;0.60;;
77736;SDS011;66903;59.926;30.404;2023-09-19T02:24:21;1.70;;;0.60;;
77736;SDS011;66903;59.926;30.404;2023-09-19T02:29:21;1.67;;;0.60;;
77736;SDS011;66903;59.926;30.404;2023-09-19T02:34:22;1.90;;;0.65;;
77736;SDS011;66903;59.926;30.404;2023-09-19T02:39:23;2.78;;;0.80;;
77736;SDS011;66903;59.926;30.404;2023-09-19T02:44:24;1.88;;;0.70;;
77736;SDS011;66903;59.926;30.404;2023-09-19T02:49:24;2.25;;;0.80;;
77736;SDS011;66903;59.926;30.404;2023-09-19T02:54:25;1.95;;;0.57;;
77736;SDS011;66903;59.926;30.404;2023-09-19T02:59:25;2.38;;;0.80;;
77736;SDS011;66903;59.926;30.404;2023-09-19T03:04:26;2.40;;;0.60;;
77736;SDS011;66903;59.926;30.404;2023-09-19T03:09:27;1.50;;;0.60;;
77736;SDS011;66903;59.926;30.404;2023-09-19T03:14:27;1.80;;;0.60;;
77736;SDS011;66903;59.926;30.404;2023-09-19T03:19:30;2.30;;;0.68;;
77736;SDS011;66903;59.926;30.404;2023-09-19T03:24:33;1.35;;;0.50;;
77736;SDS011;66903;59.926;30.404;2023-09-19T03:29:35;2.30;;;0.73;;
77736;SDS011;66903;59.926;30.404;2023-09-19T03:34:39;1.58;;;0.65;;
77736;SDS011;66903;59.926;30.404;2023-09-19T03:44:43;2.63;;;0.60;;
77736;SDS011;66903;59.926;30.404;2023-09-19T03:49:44;1.63;;;0.60;;
77736;SDS011;66903;59.926;30.404;2023-09-19T03:54:45;1.02;;;0.60;;
77736;SDS011;66903;59.926;30.404;2023-09-19T03:59:45;2.00;;;0.60;;
77736;SDS011;66903;59.926;30.404;2023-09-19T04:04:46;5.75;;;0.57;;
77736;SDS011;66903;59.926;30.404;2023-09-19T04:09:47;2.10;;;0.63;;
77736;SDS011;66903;59.926;30.404;2023-09-19T04:14:49;0.95;;;0.38;;
77736;SDS011;66903;59.926;30.404;2023-09-19T04:19:50;0.95;;;0.40;;
77736;SDS011;66903;59.926;30.404;2023-09-19T04:24:51;1.65;;;0.60;;
77736;SDS011;66903;59.926;30.404;2023-09-19T04:29:51;2.35;;;0.63;;
77736;SDS011;66903;59.926;30.404;2023-09-19T04:34:53;5.60;;;1.02;;
77736;SDS011;66903;59.926;30.404;2023-09-19T04:39:55;3.20;;;0.60;;
77736;SDS011;66903;59.926;30.404;2023-09-19T04:44:55;2.13;;;0.68;;
77736;SDS011;66903;59.926;30.404;2023-09-19T04:49:56;1.63;;;0.50;;
77736;SDS011;66903;59.926;30.404;2023-09-19T04:54:59;2.60;;;0.65;;
77736;SDS011;66903;59.926;30.404;2023-09-19T04:59:59;0.95;;;0.43;;
77736;SDS011;66903;59.926;30.404;2023-09-19T05:05:00;4.65;;;0.70;;
77736;SDS011;66903;59.926;30.404;2023-09-19T05:10:00;5.07;;;0.60;;
77736;SDS011;66903;59.926;30.404;2023-09-19T05:15:04;1.58;;;0.50;;
77736;SDS011;66903;59.926;30.404;2023-09-19T05:20:09;2.10;;;1.08;;
77736;SDS011;66903;59.926;30.404;2023-09-19T05:25:16;1.45;;;0.60;;
77736;SDS011;66903;59.926;30.404;2023-09-19T05:30:18;1.23;;;0.60;;
77736;SDS011;66903;59.926;30.404;2023-09-19T05:35:20;0.93;;;0.47;;
77736;SDS011;66903;59.926;30.404;2023-09-19T05:40:21;0.90;;;0.43;;
77736;SDS011;66903;59.926;30.404;2023-09-19T05:45:22;0.80;;;0.17;;
77736;SDS011;66903;59.926;30.404;2023-09-19T05:50:22;0.88;;;0.40;;
77736;SDS011;66903;59.926;30.404;2023-09-19T05:55:24;1.80;;;0.60;;
77736;SDS011;66903;59.926;30.404;2023-09-19T06:00:25;1.60;;;0.40;;
77736;SDS011;66903;59.926;30.404;2023-09-19T06:05:27;1.23;;;0.40;;
77736;SDS011;66903;59.926;30.404;2023-09-19T06:10:30;1.58;;;0.52;;
77736;SDS011;66903;59.926;30.404;2023-09-19T06:15:32;0.85;;;0.32;;
77736;SDS011;66903;59.926;30.404;2023-09-19T06:20:33;1.35;;;0.52;;
77736;SDS011;66903;59.926;30.404;2023-09-19T06:25:34;2.10;;;0.60;;
77736;SDS011;66903;59.926;30.404;2023-09-19T06:30:37;1.60;;;0.52;;
77736;SDS011;66903;59.926;30.404;2023-09-19T06:35:41;1.55;;;0.65;;
77736;SDS011;66903;59.926;30.404;2023-09-19T06:40:44;1.63;;;0.50;;
77736;SDS011;66903;59.926;30.404;2023-09-19T06:45:45;2.80;;;0.60;;
77736;SDS011;66903;59.926;30.404;2023-09-19T06:50:46;1.42;;;0.60;;
77736;SDS011;66903;59.926;30.404;2023-09-19T06:55:48;0.95;;;0.47;;
77736;SDS011;66903;59.926;30.404;2023-09-19T07:00:48;3.50;;;0.88;;
77736;SDS011;66903;59.926;30.404;2023-09-19T07:05:50;1.83;;;0.57;;
77736;SDS011;66903;59.926;30.404;2023-09-19T07:10:50;2.25;;;0.80;;
77736;SDS011;66903;59.926;30.404;2023-09-19T07:15:52;3.13;;;0.82;;
77736;SDS011;66903;59.926;30.404;2023-09-19T07:20:56;1.98;;;0.70;;
77736;SDS011;66903;59.926;30.404;2023-09-19T07:26:01;2.13;;;0.65;;
77736;SDS011;66903;59.926;30.404;2023-09-19T07:31:05;5.47;;;0.90;;
77736;SDS011;66903;59.926;30.404;2023-09-19T07:36:09;2.35;;;0.82;;
77736;SDS011;66903;59.926;30.404;2023-09-19T07:41:10;2.70;;;0.80;;
77736;SDS011;66903;59.926;30.404;2023-09-19T07:46:11;1.48;;;0.70;;
77736;SDS011;66903;59.926;30.404;2023-09-19T07:51:12;2.25;;;0.70;;
77736;SDS011;66903;59.926;30.404;2023-09-19T07:56:14;2.40;;;0.82;;
77736;SDS011;66903;59.926;30.404;2023-09-19T08:01:15;2.92;;;0.98;;
77736;SDS011;66903;59.926;30.404;2023-09-19T08:06:16;2.28;;;0.90;;
77736;SDS011;66903;59.926;30.404;2023-09-19T08:11:16;3.13;;;0.98;;
77736;SDS011;66903;59.926;30.404;2023-09-19T08:16:21;2.63;;;0.80;;
77736;SDS011;66903;59.926;30.404;2023-09-19T08:21:22;2.75;;;0.95;;
77736;SDS011;66903;59.926;30.404;2023-09-19T08:26:24;2.65;;;1.00;;
77736;SDS011;66903;59.926;30.404;2023-09-19T08:31:25;2.38;;;0.80;;
77736;SDS011;66903;59.926;30.404;2023-09-19T08:36:26;3.30;;;1.00;;
77736;SDS011;66903;59.926;30.404;2023-09-19T08:41:27;2.40;;;0.85;;
77736;SDS011;66903;59.926;30.404;2023-09-19T08:46:27;2.42;;;0.88;;
77736;SDS011;66903;59.926;30.404;2023-09-19T08:51:41;3.67;;;1.15;;
77736;SDS011;66903;59.926;30.404;2023-09-19T08:56:46;3.15;;;1.10;;
77736;SDS011;66903;59.926;30.404;2023-09-19T09:01:48;3.08;;;1.00;;
77736;SDS011;66903;59.926;30.404;2023-09-19T09:06:51;2.60;;;0.80;;
77736;SDS011;66903;59.926;30.404;2023-09-19T09:11:53;3.75;;;1.13;;
77736;SDS011;66903;59.926;30.404;2023-09-19T09:16:56;3.20;;;0.88;;
77736;SDS011;66903;59.926;30.404;2023-09-19T09:22:10;2.50;;;1.00;;
77736;SDS011;66903;59.926;30.404;2023-09-19T09:27:11;1.70;;;0.73;;
77736;SDS011;66903;59.926;30.404;2023-09-19T09:32:16;2.47;;;0.90;;
77736;SDS011;66903;59.926;30.404;2023-09-19T09:37:20;2.92;;;1.10;;
77736;SDS011;66903;59.926;30.404;2023-09-19T09:47:48;2.47;;;0.95;;
77736;SDS011;66903;59.926;30.404;2023-09-19T09:52:58;2.83;;;1.00;;
77736;SDS011;66903;59.926;30.404;2023-09-19T09:58:16;2.67;;;0.90;;
77736;SDS011;66903;59.926;30.404;2023-09-19T10:03:21;2.80;;;0.90;;
77736;SDS011;66903;59.926;30.404;2023-09-19T10:08:22;3.08;;;1.00;;
77736;SDS011;66903;59.926;30.404;2023-09-19T10:13:23;2.78;;;0.98;;
77736;SDS011;66903;59.926;30.404;2023-09-19T10:18:29;6.30;;;0.98;;
77736;SDS011;66903;59.926;30.404;2023-09-19T10:23:33;4.30;;;1.20;;
77736;SDS011;66903;59.926;30.404;2023-09-19T10:28:36;3.78;;;1.00;;
77736;SDS011;66903;59.926;30.404;2023-09-19T10:33:38;2.25;;;0.80;;
77736;SDS011;66903;59.926;30.404;2023-09-19T10:38:42;2.20;;;0.82;;
77736;SDS011;66903;59.926;30.404;2023-09-19T10:43:45;3.55;;;1.15;;
77736;SDS011;66903;59.926;30.404;2023-09-19T10:48:48;2.95;;;1.10;;
77736;SDS011;66903;59.926;30.404;2023-09-19T10:53:55;3.15;;;1.20;;
77736;SDS011;66903;59.926;30.404;2023-09-19T10:59:10;4.05;;;1.17;;
77736;SDS011;66903;59.926;30.404;2023-09-19T11:04:31;3.88;;;1.30;;
77736;SDS011;66903;59.926;30.404;2023-09-19T11:15:04;3.60;;;1.33;;
77736;SDS011;66903;59.926;30.404;2023-09-19T11:30:30;4.75;;;2.28;;
77736;SDS011;66903;59.926;30.404;2023-09-19T11:46:32;5.40;;;2.53;;
77736;SDS011;66903;59.926;30.404;2023-09-19T11:51:39;6.95;;;3.60;;
77736;SDS011;66903;59.926;30.404;2023-09-19T11:56:43;5.97;;;2.22;;
77736;SDS011;66903;59.926;30.404;2023-09-19T12:01:50;5.53;;;2.70;;
77736;SDS011;66903;59.926;30.404;2023-09-19T12:06:57;5.60;;;2.53;;
77736;SDS011;66903;59.926;30.404;2023-09-19T12:11:58;4.70;;;1.92;;
77736;SDS011;66903;59.926;30.404;2023-09-19T12:16:59;4.03;;;2.08;;
77736;SDS011;66903;59.926;30.404;2023-09-19T12:22:02;5.95;;;2.42;;
77736;SDS011;66903;59.926;30.404;2023-09-19T12:27:06;16.48;;;9.40;;
77736;SDS011;66903;59.926;30.404;2023-09-19T12:32:07;14.18;;;7.43;;
77736;SDS011;66903;59.926;30.404;2023-09-19T12:37:08;6.45;;;2.65;;
77736;SDS011;66903;59.926;30.404;2023-09-19T12:42:16;9.18;;;2.88;;
77736;SDS011;66903;59.926;30.404;2023-09-19T12:47:24;6.53;;;3.15;;
77736;SDS011;66903;59.926;30.404;2023-09-19T12:52:24;6.22;;;2.70;;
77736;SDS011;66903;59.926;30.404;2023-09-19T12:57:26;5.88;;;2.58;;
77736;SDS011;66903;59.926;30.404;2023-09-19T13:02:27;6.57;;;2.00;;
77736;SDS011;66903;59.926;30.404;2023-09-19T13:07:44;5.82;;;2.53;;
77736;SDS011;66903;59.926;30.404;2023-09-19T13:12:47;9.13;;;3.75;;
77736;SDS011;66903;59.926;30.404;2023-09-19T13:17:48;4.70;;;2.08;;
77736;SDS011;66903;59.926;30.404;2023-09-19T13:22:50;7.18;;;1.63;;
77736;SDS011;66903;59.926;30.404;2023-09-19T13:27:54;4.07;;;1.85;;
77736;SDS011;66903;59.926;30.404;2023-09-19T13:33:05;5.45;;;2.25;;
77736;SDS011;66903;59.926;30.404;2023-09-19T13:38:10;4.70;;;2.08;;
77736;SDS011;66903;59.926;30.404;2023-09-19T13:43:11;5.07;;;2.00;;
77736;SDS011;66903;59.926;30.404;2023-09-19T13:48:11;4.55;;;1.88;;
77736;SDS011;66903;59.926;30.404;2023-09-19T13:53:12;7.38;;;2.50;;
77736;SDS011;66903;59.926;30.404;2023-09-19T13:58:13;8.70;;;1.58;;
77736;SDS011;66903;59.926;30.404;2023-09-19T14:03:13;6.93;;;2.10;;
77736;SDS011;66903;59.926;30.404;2023-09-19T14:08:14;7.60;;;4.07;;
77736;SDS011;66903;59.926;30.404;2023-09-19T14:13:14;4.40;;;2.00;;
77736;SDS011;66903;59.926;30.404;2023-09-19T14:18:15;4.50;;;1.50;;
77736;SDS011;66903;59.926;30.404;2023-09-19T14:23:16;4.00;;;1.70;;
77736;SDS011;66903;59.926;30.404;2023-09-19T14:28:16;7.32;;;2.20;;
77736;SDS011;66903;59.926;30.404;2023-09-19T14:33:17;4.45;;;1.63;;
77736;SDS011;66903;59.926;30.404;2023-09-19T14:38:18;4.57;;;2.08;;
77736;SDS011;66903;59.926;30.404;2023-09-19T14:43:18;4.15;;;1.60;;
77736;SDS011;66903;59.926;30.404;2023-09-19T14:48:19;3.72;;;1.60;;
77736;SDS011;66903;59.926;30.404;2023-09-19T14:53:20;4.45;;;1.85;;
77736;SDS011;66903;59.926;30.404;2023-09-19T14:58:20;5.45;;;1.92;;
77736;SDS011;66903;59.926;30.404;2023-09-19T15:03:21;3.80;;;1.77;;
77736;SDS011;66903;59.926;30.404;2023-09-19T15:08:22;3.47;;;1.30;;
77736;SDS011;66903;59.926;30.404;2023-09-19T15:13:23;3.90;;;1.48;;
77736;SDS011;66903;59.926;30.404;2023-09-19T15:18:29;3.28;;;1.25;;
77736;SDS011;66903;59.926;30.404;2023-09-19T15:23:31;4.00;;;1.40;;
77736;SDS011;66903;59.926;30.404;2023-09-19T15:28:37;2.97;;;1.17;;
77736;SDS011;66903;59.926;30.404;2023-09-19T15:33:37;3.70;;;1.58;;
77736;SDS011;66903;59.926;30.404;2023-09-19T15:44:03;4.20;;;1.67;;
77736;SDS011;66903;59.926;30.404;2023-09-19T15:49:05;3.90;;;1.50;;
77736;SDS011;66903;59.926;30.404;2023-09-19T15:54:15;3.83;;;1.63;;
77736;SDS011;66903;59.926;30.404;2023-09-19T15:59:16;3.58;;;1.45;;
77736;SDS011;66903;59.926;30.404;2023-09-19T16:04:16;3.90;;;1.67;;
77736;SDS011;66903;59.926;30.404;2023-09-19T16:09:17;3.92;;;1.30;;
77736;SDS011;66903;59.926;30.404;2023-09-19T16:14:18;3.90;;;1.63;;
77736;SDS011;66903;59.926;30.404;2023-09-19T16:19:18;3.75;;;1.35;;
77736;SDS011;66903;59.926;30.404;2023-09-19T16:24:19;3.03;;;1.20;;
77736;SDS011;66903;59.926;30.404;2023-09-19T16:29:19;4.15;;;1.35;;
77736;SDS011;66903;59.926;30.404;2023-09-19T16:34:24;5.15;;;1.70;;
77736;SDS011;66903;59.926;30.404;2023-09-19T16:39:25;3.65;;;1.60;;
77736;SDS011;66903;59.926;30.404;2023-09-19T16:44:26;6.28;;;2.00;;
77736;SDS011;66903;59.926;30.404;2023-09-19T16:49:29;4.10;;;1.60;;
77736;SDS011;66903;59.926;30.404;2023-09-19T16:54:30;10.02;;;1.90;;
77736;SDS011;66903;59.926;30.404;2023-09-19T16:59:31;4.53;;;1.50;;
77736;SDS011;66903;59.926;30.404;2023-09-19T17:04:31;6.65;;;3.00;;
77736;SDS011;66903;59.926;30.404;2023-09-19T17:09:32;9.77;;;3.70;;
77736;SDS011;66903;59.926;30.404;2023-09-19T17:14:35;14.15;;;4.80;;
77736;SDS011;66903;59.926;30.404;2023-09-19T17:19:36;8.20;;;3.90;;
77736;SDS011;66903;59.926;30.404;2023-09-19T17:24:36;8.73;;;3.47;;
77736;SDS011;66903;59.926;30.404;2023-09-19T17:29:40;9.18;;;3.00;;
77736;SDS011;66903;59.926;30.404;2023-09-19T17:34:40;6.13;;;2.80;;
77736;SDS011;66903;59.926;30.404;2023-09-19T17:39:41;8.45;;;2.50;;
77736;SDS011;66903;59.926;30.404;2023-09-19T17:44:43;7.97;;;2.70;;
77736;SDS011;66903;59.926;30.404;2023-09-19T17:49:43;5.40;;;2.40;;
77736;SDS011;66903;59.926;30.404;2023-09-19T17:54:44;12.07;;;2.63;;
77736;SDS011;66903;59.926;30.404;2023-09-19T17:59:45;13.80;;;3.28;;
77736;SDS011;66903;59.926;30.404;2023-09-19T18:04:46;5.45;;;2.10;;
77736;SDS011;66903;59.926;30.404;2023-09-19T18:09:46;7.15;;;2.63;;
77736;SDS011;66903;59.926;30.404;2023-09-19T18:14:47;6.28;;;2.35;;
77736;SDS011;66903;59.926;30.404;2023-09-19T18:19:48;5.82;;;2.58;;
77736;SDS011;66903;59.926;30.404;2023-09-19T18:24:50;11.82;;;5.57;;
77736;SDS011;66903;59.926;30.404;2023-09-19T18:29:51;5.95;;;2.85;;
77736;SDS011;66903;59.926;30.404;2023-09-19T18:34:53;6.80;;;2.60;;
77736;SDS011;66903;59.926;30.404;2023-09-19T18:39:54;4.97;;;2.03;;
77736;SDS011;66903;59.926;30.404;2023-09-19T18:44:55;6.32;;;2.53;;
77736;SDS011;66903;59.926;30.404;2023-09-19T18:49:55;7.72;;;3.17;;
77736;SDS011;66903;59.926;30.404;2023-09-19T18:54:56;6.85;;;2.97;;
77736;SDS011;66903;59.926;30.404;2023-09-19T18:59:57;6.75;;;2.28;;
77736;SDS011;66903;59.926;30.404;2023-09-19T19:04:58;7.97;;;2.40;;
77736;SDS011;66903;59.926;30.404;2023-09-19T19:09:59;6.50;;;2.17;;
77736;SDS011;66903;59.926;30.404;2023-09-19T19:14:59;6.15;;;2.75;;
77736;SDS011;66903;59.926;30.404;2023-09-19T19:20:00;5.45;;;2.55;;
77736;SDS011;66903;59.926;30.404;2023-09-19T19:25:05;6.80;;;2.60;;
77736;SDS011;66903;59.926;30.404;2023-09-19T19:30:09;5.95;;;2.70;;
77736;SDS011;66903;59.926;30.404;2023-09-19T19:35:11;4.97;;;2.60;;
77736;SDS011;66903;59.926;30.404;2023-09-19T19:40:13;6.90;;;2.83;;
77736;SDS011;66903;59.926;30.404;2023-09-19T19:45:13;5.15;;;2.35;;
77736;SDS011;66903;59.926;30.404;2023-09-19T19:50:14;4.82;;;2.30;;
77736;SDS011;66903;59.926;30.404;2023-09-19T19:55:16;4.93;;;2.25;;
77736;SDS011;66903;59.926;30.404;2023-09-19T20:00:18;10.00;;;2.50;;
77736;SDS011;66903;59.926;30.404;2023-09-19T20:05:20;6.32;;;2.88;;
77736;SDS011;66903;59.926;30.404;2023-09-19T20:10:20;6.30;;;2.83;;
77736;SDS011;66903;59.926;30.404;2023-09-19T20:15:22;6.38;;;2.42;;
77736;SDS011;66903;59.926;30.404;2023-09-19T20:20:25;6.93;;;2.08;;
77736;SDS011;66903;59.926;30.404;2023-09-19T20:25:27;5.63;;;2.95;;
77736;SDS011;66903;59.926;30.404;2023-09-19T20:30:28;5.03;;;2.20;;
77736;SDS011;66903;59.926;30.404;2023-09-19T20:35:29;7.28;;;2.42;;
77736;SDS011;66903;59.926;30.404;2023-09-19T20:40:29;6.10;;;2.60;;
77736;SDS011;66903;59.926;30.404;2023-09-19T20:45:30;6.70;;;2.55;;
77736;SDS011;66903;59.926;30.404;2023-09-19T20:50:33;7.50;;;2.78;;
77736;SDS011;66903;59.926;30.404;2023-09-19T20:55:34;14.80;;;4.28;;
77736;SDS011;66903;59.926;30.404;2023-09-19T21:00:39;5.28;;;2.45;;
77736;SDS011;66903;59.926;30.404;2023-09-19T21:05:41;9.35;;;2.72;;
77736;SDS011;66903;59.926;30.404;2023-09-19T21:10:41;5.80;;;2.80;;
77736;SDS011;66903;59.926;30.404;2023-09-19T21:15:42;8.35;;;2.53;;
77736;SDS011;66903;59.926;30.404;2023-09-19T21:20:43;5.35;;;2.42;;
77736;SDS011;66903;59.926;30.404;2023-09-19T21:25:52;6.45;;;2.60;;
77736;SDS011;66903;59.926;30.404;2023-09-19T21:31:03;6.80;;;2.55;;
77736;SDS011;66903;59.926;30.404;2023-09-19T21:36:05;5.22;;;2.20;;
77736;SDS011;66903;59.926;30.404;2023-09-19T21:41:10;5.43;;;2.50;;
77736;SDS011;66903;59.926;30.404;2023-09-19T21:46:12;7.45;;;2.60;;
77736;SDS011;66903;59.926;30.404;2023-09-19T21:51:13;4.60;;;2.38;;
77736;SDS011;66903;59.926;30.404;2023-09-19T21:56:15;5.85;;;2.30;;
77736;SDS011;66903;59.926;30.404;2023-09-19T22:01:17;5.55;;;2.35;;
77736;SDS011;66903;59.926;30.404;2023-09-19T22:06:21;4.90;;;2.45;;
77736;SDS011;66903;59.926;30.404;2023-09-19T22:11:22;6.75;;;2.30;;
77736;SDS011;66903;59.926;30.404;2023-09-19T22:16:22;5.68;;;2.47;;
77736;SDS011;66903;59.926;30.404;2023-09-19T22:21:25;5.10;;;2.30;;
77736;SDS011;66903;59.926;30.404;2023-09-19T22:26:38;4.70;;;2.17;;
77736;SDS011;66903;59.926;30.404;2023-09-19T22:31:42;5.03;;;2.17;;
77736;SDS011;66903;59.926;30.404;2023-09-19T22:36:43;4.85;;;2.20;;
77736;SDS011;66903;59.926;30.404;2023-09-19T22:41:44;6.32;;;2.22;;
77736;SDS011;66903;59.926;30.404;2023-09-19T22:46:45;4.80;;;2.03;;
77736;SDS011;66903;59.926;30.404;2023-09-19T22:51:48;6.78;;;2.13;;
77736;SDS011;66903;59.926;30.404;2023-09-19T22:56:54;4.07;;;1.70;;
77736;SDS011;66903;59.926;30.404;2023-09-19T23:01:55;5.07;;;1.88;;
77736;SDS011;66903;59.926;30.404;2023-09-19T23:06:57;5.18;;;1.92;;
77736;SDS011;66903;59.926;30.404;2023-09-19T23:12:05;4.50;;;1.63;;
77736;SDS011;66903;59.926;30.404;2023-09-19T23:17:17;3.72;;;1.38;;
77736;SDS011;66903;59.926;30.404;2023-09-19T23:22:22;4.85;;;1.67;;
77736;SDS011;66903;59.926;30.404;2023-09-19T23:27:23;3.83;;;1.42;;
77736;SDS011;66903;59.926;30.404;2023-09-19T23:32:34;4.35;;;1.48;;
77736;SDS011;66903;59.926;30.404;2023-09-19T23:37:35;3.70;;;1.55;;
77736;SDS011;66903;59.926;30.404;2023-09-19T23:42:35;3.60;;;1.10;;
77736;SDS011;66903;59.926;30.404;2023-09-19T23:47:36;4.30;;;1.75;;
77736;SDS011;66903;59.926;30.404;2023-09-19T23:52:38;5.72;;;1.85;;
77736;SDS011;66903;59.926;30.404;2023-09-19T23:57:39;4.45;;;1.60;;
